Time;durP1;ratioP1;P1;durP2;ratioP2;P2;SDS_P1;SDS_P2;PMS_P1;PMS_P2;Temp;Humidity;BMP_temperature;BMP_pressure;BME280_temperature;BME280_humidity;BME280_pressure;Samples;Min_cycle;Max_cycle;Signal;HPM_P1;HPM_P2
2021/08/04 00:00:09;;;;;;;9.07;2.80;;;;;;;;;;5095901;28;20062;-72
2021/08/04 00:02:35;;;;;;;9.07;3.47;;;;;;;;;;5095410;28;20028;-72
2021/08/04 00:05:02;;;;;;;6.45;2.72;;;;;;;;;;5094581;28;20024;-72
2021/08/04 00:07:28;;;;;;;9.65;3.25;;;;;;;;;;5095813;28;20024;-72
2021/08/04 00:09:54;;;;;;;7.68;3.10;;;;;;;;;;5095541;28;20464;-72
2021/08/04 00:12:20;;;;;;;10.02;3.20;;;;;;;;;;5095655;28;20082;-71
2021/08/04 00:14:46;;;;;;;11.70;4.05;;;;;;;;;;5095641;28;20032;-72
2021/08/04 00:17:12;;;;;;;7.82;3.63;;;;;;;;;;5095383;28;20032;-71
2021/08/04 00:19:39;;;;;;;13.40;4.30;;;;;;;;;;5094053;28;20044;-72
2021/08/04 00:22:05;;;;;;;10.32;3.35;;;;;;;;;;5095610;28;20100;-72
2021/08/04 00:24:31;;;;;;;9.85;2.78;;;;;;;;;;5093795;28;20058;-71
2021/08/04 00:29:12;;;;;;;10.15;3.05;;;;;;;;;;5132138;27;20120;-70
2021/08/04 00:31:38;;;;;;;13.80;3.45;;;;;;;;;;5110910;28;20050;-71
2021/08/04 00:34:04;;;;;;;10.05;3.40;;;;;;;;;;5093047;28;20031;-70
2021/08/04 00:36:30;;;;;;;7.20;2.63;;;;;;;;;;5111186;28;20020;-71
2021/08/04 00:38:58;;;;;;;6.93;2.63;;;;;;;;;;5110860;28;20024;-71
2021/08/04 00:41:24;;;;;;;9.90;2.70;;;;;;;;;;5111377;28;20480;-71
2021/08/04 00:43:50;;;;;;;7.30;2.70;;;;;;;;;;5111177;28;20051;-71
2021/08/04 00:46:16;;;;;;;7.30;2.78;;;;;;;;;;5092456;28;20024;-71
2021/08/04 00:48:43;;;;;;;6.28;2.63;;;;;;;;;;5110948;28;20036;-71
2021/08/04 00:51:09;;;;;;;8.50;2.55;;;;;;;;;;5111000;28;20150;-71
2021/08/04 00:53:36;;;;;;;8.10;2.30;;;;;;;;;;5110535;28;20031;-71
2021/08/04 00:56:51;;;;;;;6.47;2.58;;;;;;;;;;5112072;27;20738;-71
2021/08/04 00:59:17;;;;;;;7.72;2.50;;;;;;;;;;5111153;28;20028;-71
2021/08/04 01:01:57;;;;;;;9.02;2.35;;;;;;;;;;5109988;28;20073;-71
2021/08/04 01:04:46;;;;;;;9.10;3.33;;;;;;;;;;5110003;28;20034;-71
2021/08/04 01:07:32;;;;;;;7.32;2.53;;;;;;;;;;5102888;28;20039;-70
2021/08/04 01:12:31;;;;;;;10.00;2.92;;;;;;;;;;5111976;27;20393;-70
2021/08/04 01:15:01;;;;;;;8.05;2.03;;;;;;;;;;5110946;28;20028;-71
2021/08/04 01:17:27;;;;;;;7.13;2.42;;;;;;;;;;5111303;28;20492;-70
2021/08/04 01:19:58;;;;;;;7.13;2.20;;;;;;;;;;5110890;28;20024;-71
2021/08/04 01:22:33;;;;;;;6.30;2.47;;;;;;;;;;5111334;28;20034;-70
2021/08/04 01:25:12;;;;;;;8.65;2.90;;;;;;;;;;5111276;28;20031;-70
2021/08/04 01:27:39;;;;;;;10.52;2.63;;;;;;;;;;5110939;28;20020;-70
2021/08/04 01:30:05;;;;;;;6.53;2.65;;;;;;;;;;5111042;28;20077;-70
2021/08/04 01:34:37;;;;;;;7.10;2.50;;;;;;;;;;5111105;27;20393;-70
2021/08/04 01:37:04;;;;;;;8.77;2.83;;;;;;;;;;5111482;28;20444;-70
2021/08/04 01:39:32;;;;;;;8.52;2.85;;;;;;;;;;5111310;28;20069;-70
2021/08/04 01:41:58;;;;;;;8.32;2.50;;;;;;;;;;5110952;28;20034;-70
2021/08/04 01:44:24;;;;;;;9.02;3.08;;;;;;;;;;5111486;28;20031;-70
2021/08/04 01:48:21;;;;;;;8.73;2.92;;;;;;;;;;5111522;27;20393;-70
2021/08/04 01:50:47;;;;;;;8.60;2.92;;;;;;;;;;5111347;28;20020;-70
2021/08/04 01:53:13;;;;;;;8.77;2.30;;;;;;;;;;5111564;28;20046;-70
2021/08/04 01:55:40;;;;;;;7.97;2.72;;;;;;;;;;5110836;28;20019;-70
2021/08/04 01:58:06;;;;;;;9.25;2.53;;;;;;;;;;5111123;28;20020;-70
2021/08/04 02:00:32;;;;;;;8.07;2.50;;;;;;;;;;5109930;28;20031;-70
2021/08/04 02:02:58;;;;;;;12.20;3.70;;;;;;;;;;5110948;28;20024;-70
2021/08/04 02:05:25;;;;;;;11.10;3.25;;;;;;;;;;5111087;28;20364;-69
2021/08/04 02:07:55;;;;;;;6.07;2.60;;;;;;;;;;5110928;28;20044;-70
2021/08/04 02:10:27;;;;;;;8.25;2.70;;;;;;;;;;5110817;28;20076;-70
2021/08/04 02:12:57;;;;;;;7.22;2.55;;;;;;;;;;5110939;28;20039;-70
2021/08/04 02:15:24;;;;;;;7.47;2.30;;;;;;;;;;5111326;28;20094;-70
2021/08/04 02:18:10;;;;;;;6.47;2.33;;;;;;;;;;5110503;28;20039;-70
2021/08/04 02:20:38;;;;;;;8.65;2.50;;;;;;;;;;5110888;28;20047;-70
2021/08/04 02:23:06;;;;;;;7.18;2.95;;;;;;;;;;5110382;28;20030;-70
2021/08/04 02:25:38;;;;;;;9.52;3.05;;;;;;;;;;5110843;28;20020;-70
2021/08/04 02:28:54;;;;;;;9.80;2.67;;;;;;;;;;5111400;27;20389;-70
2021/08/04 02:31:20;;;;;;;11.23;3.47;;;;;;;;;;5110963;28;20036;-70
2021/08/04 02:33:46;;;;;;;7.78;2.08;;;;;;;;;;5111286;28;20024;-70
2021/08/04 02:36:13;;;;;;;8.18;2.70;;;;;;;;;;5111742;28;20476;-70
2021/08/04 02:38:39;;;;;;;11.73;3.25;;;;;;;;;;5110813;28;20024;-70
2021/08/04 02:41:16;;;;;;;6.38;2.42;;;;;;;;;;5112186;27;20950;-70
2021/08/04 02:43:42;;;;;;;15.23;3.97;;;;;;;;;;5111318;28;20028;-70
2021/08/04 02:46:08;;;;;;;11.27;3.20;;;;;;;;;;5109588;28;20069;-70
2021/08/04 02:49:09;;;;;;;11.43;3.05;;;;;;;;;;5111748;27;20513;-70
2021/08/04 02:51:35;;;;;;;10.27;3.30;;;;;;;;;;5110896;28;20024;-70
2021/08/04 02:54:01;;;;;;;9.20;3.42;;;;;;;;;;5111527;28;20030;-70
2021/08/04 02:56:28;;;;;;;8.13;2.83;;;;;;;;;;5111574;28;20051;-70
2021/08/04 02:58:54;;;;;;;7.63;2.80;;;;;;;;;;5110953;28;20077;-70
2021/08/04 03:01:20;;;;;;;5.28;2.35;;;;;;;;;;5111184;28;20024;-70
2021/08/04 03:03:46;;;;;;;10.20;2.88;;;;;;;;;;5111403;28;20032;-70
2021/08/04 03:06:12;;;;;;;9.77;3.42;;;;;;;;;;5110820;28;20024;-70
2021/08/04 03:08:39;;;;;;;6.03;2.20;;;;;;;;;;5109744;28;20043;-71
2021/08/04 03:11:06;;;;;;;8.15;3.22;;;;;;;;;;5111022;28;20015;-70
2021/08/04 03:13:32;;;;;;;10.60;3.13;;;;;;;;;;5110543;28;20027;-71
2021/08/04 03:15:58;;;;;;;11.20;3.47;;;;;;;;;;5110876;28;20031;-70
2021/08/04 03:18:25;;;;;;;9.80;3.70;;;;;;;;;;5111048;28;20039;-70
2021/08/04 03:20:51;;;;;;;13.25;3.38;;;;;;;;;;5110516;28;20026;-70
2021/08/04 03:23:17;;;;;;;9.85;3.58;;;;;;;;;;5110753;28;20028;-70
2021/08/04 03:25:43;;;;;;;8.82;2.97;;;;;;;;;;5110727;28;20091;-70
2021/08/04 03:29:07;;;;;;;9.65;3.50;;;;;;;;;;5111492;27;20397;-70
2021/08/04 03:31:33;;;;;;;12.55;3.08;;;;;;;;;;5111320;28;20536;-70
2021/08/04 03:33:59;;;;;;;17.23;3.08;;;;;;;;;;5109593;28;20107;-70
2021/08/04 03:36:25;;;;;;;8.80;2.80;;;;;;;;;;5111160;28;20546;-70
2021/08/04 03:38:52;;;;;;;12.55;3.13;;;;;;;;;;5111389;28;20020;-70
2021/08/04 03:41:18;;;;;;;7.55;2.45;;;;;;;;;;5110664;28;20479;-70
2021/08/04 03:43:44;;;;;;;9.80;3.50;;;;;;;;;;5109749;28;20028;-70
2021/08/04 03:46:10;;;;;;;9.45;2.85;;;;;;;;;;5110962;28;20024;-71
2021/08/04 03:49:01;;;;;;;10.23;3.20;;;;;;;;;;5111182;27;20384;-70
2021/08/04 03:51:27;;;;;;;8.23;3.67;;;;;;;;;;5111196;28;20034;-70
2021/08/04 03:55:06;;;;;;;7.70;2.92;;;;;;;;;;5070687;28;20407;-71
2021/08/04 03:57:32;;;;;;;12.25;3.33;;;;;;;;;;5071033;28;20029;-71
2021/08/04 03:59:58;;;;;;;8.75;2.45;;;;;;;;;;5070741;28;20036;-71
2021/08/04 04:02:25;;;;;;;9.80;3.08;;;;;;;;;;5070314;28;20024;-71
2021/08/04 04:05:30;;;;;;;11.63;3.70;;;;;;;;;;5111889;27;20389;-71
2021/08/04 04:07:56;;;;;;;11.27;3.80;;;;;;;;;;5111360;28;20443;-72
2021/08/04 04:10:23;;;;;;;9.55;3.05;;;;;;;;;;5110922;28;20028;-72
2021/08/04 04:13:45;;;;;;;9.43;3.13;;;;;;;;;;5111608;27;20381;-71
2021/08/04 04:16:11;;;;;;;7.95;2.92;;;;;;;;;;5110939;28;20024;-71
2021/08/04 04:18:37;;;;;;;11.80;3.78;;;;;;;;;;5111442;28;20032;-71
2021/08/04 04:21:04;;;;;;;9.68;3.28;;;;;;;;;;5111378;28;20099;-71
2021/08/04 04:23:58;;;;;;;11.68;3.03;;;;;;;;;;5111244;27;20498;-70
2021/08/04 04:26:24;;;;;;;13.00;3.63;;;;;;;;;;5111282;28;20024;-70
2021/08/04 04:28:50;;;;;;;13.98;3.75;;;;;;;;;;5111367;28;20031;-70
2021/08/04 04:31:16;;;;;;;12.13;3.47;;;;;;;;;;5110846;28;20089;-70
2021/08/04 04:36:15;;;;;;;9.43;3.58;;;;;;;;;;5071647;28;20409;-71
2021/08/04 04:38:42;;;;;;;9.18;3.85;;;;;;;;;;5069109;28;20043;-71
2021/08/04 04:41:08;;;;;;;10.45;3.67;;;;;;;;;;5070685;28;20022;-70
2021/08/04 04:43:36;;;;;;;8.00;3.25;;;;;;;;;;5069007;28;20100;-71
2021/08/04 04:46:03;;;;;;;12.32;4.70;;;;;;;;;;5070659;28;20024;-71
2021/08/04 04:48:50;;;;;;;11.82;4.95;;;;;;;;;;5111738;27;20385;-71
2021/08/04 04:51:16;;;;;;;11.20;4.70;;;;;;;;;;5110938;28;20024;-71
2021/08/04 04:53:42;;;;;;;9.32;4.22;;;;;;;;;;5110257;28;20507;-71
2021/08/04 04:56:08;;;;;;;10.98;4.85;;;;;;;;;;5111343;28;20103;-71
2021/08/04 04:58:34;;;;;;;8.50;4.70;;;;;;;;;;5110908;28;20024;-71
2021/08/04 05:01:00;;;;;;;9.32;4.93;;;;;;;;;;5109833;28;20488;-71
2021/08/04 05:03:27;;;;;;;14.18;5.43;;;;;;;;;;5111139;28;20379;-71
2021/08/04 05:05:53;;;;;;;13.32;5.32;;;;;;;;;;5110659;28;20020;-71
2021/08/04 05:08:19;;;;;;;16.90;6.97;;;;;;;;;;5110967;28;20172;-71
2021/08/04 05:10:45;;;;;;;14.25;5.78;;;;;;;;;;5110999;28;20376;-71
2021/08/04 05:13:11;;;;;;;16.88;6.97;;;;;;;;;;5110726;28;20023;-71
2021/08/04 05:15:37;;;;;;;15.45;5.95;;;;;;;;;;5110864;28;20027;-71
2021/08/04 05:18:04;;;;;;;21.65;8.25;;;;;;;;;;5109580;28;20403;-71
2021/08/04 05:20:30;;;;;;;14.65;6.82;;;;;;;;;;5110514;28;20045;-71
2021/08/04 05:22:57;;;;;;;14.88;6.65;;;;;;;;;;5110814;28;20406;-71
2021/08/04 05:25:23;;;;;;;12.38;6.18;;;;;;;;;;5109436;28;20043;-71
2021/08/04 05:27:50;;;;;;;10.23;4.78;;;;;;;;;;5110204;28;20036;-71
2021/08/04 05:30:16;;;;;;;20.85;5.35;;;;;;;;;;5109314;28;20483;-71
2021/08/04 05:32:42;;;;;;;13.75;5.97;;;;;;;;;;5110555;28;20039;-72
2021/08/04 05:35:09;;;;;;;12.10;4.95;;;;;;;;;;5108806;28;20054;-72
2021/08/04 05:37:35;;;;;;;11.98;4.88;;;;;;;;;;5109132;28;20056;-72
2021/08/04 05:40:02;;;;;;;12.13;5.45;;;;;;;;;;5110378;28;20028;-72
2021/08/04 05:44:36;;;;;;;15.15;4.63;;;;;;;;;;5111847;27;20397;-70
2021/08/04 05:47:02;;;;;;;12.63;4.68;;;;;;;;;;5111020;28;20483;-70
2021/08/04 05:49:29;;;;;;;12.73;5.63;;;;;;;;;;5110057;28;20027;-70
2021/08/04 05:51:55;;;;;;;12.73;6.43;;;;;;;;;;5111269;28;20027;-70
2021/08/04 05:54:21;;;;;;;14.43;5.47;;;;;;;;;;5110801;28;20464;-71
2021/08/04 05:57:15;;;;;;;9.60;4.78;;;;;;;;;;5132198;27;20116;-71
2021/08/04 06:00:51;;;;;;;14.93;6.38;;;;;;;;;;5111983;27;20396;-70
2021/08/04 06:03:17;;;;;;;13.68;6.13;;;;;;;;;;5111063;28;20043;-70
2021/08/04 06:05:43;;;;;;;11.05;5.90;;;;;;;;;;5111283;28;20066;-71
2021/08/04 06:08:10;;;;;;;13.40;4.95;;;;;;;;;;5110918;28;20103;-71
2021/08/04 06:10:37;;;;;;;14.00;5.53;;;;;;;;;;5111288;28;20038;-71
2021/08/04 06:13:04;;;;;;;15.38;5.78;;;;;;;;;;5109902;28;20020;-71
2021/08/04 06:15:30;;;;;;;10.77;5.32;;;;;;;;;;5110962;28;20136;-71
2021/08/04 06:17:56;;;;;;;15.65;5.40;;;;;;;;;;5111223;28;20020;-71
2021/08/04 06:20:23;;;;;;;13.20;5.55;;;;;;;;;;5109652;28;20028;-72
2021/08/04 06:22:49;;;;;;;13.55;4.88;;;;;;;;;;5109327;28;20020;-71
2021/08/04 06:25:15;;;;;;;10.77;5.25;;;;;;;;;;5111019;28;20024;-71
2021/08/04 06:27:41;;;;;;;14.45;5.57;;;;;;;;;;5110930;28;20023;-71
2021/08/04 06:30:07;;;;;;;13.60;5.45;;;;;;;;;;5110285;28;20066;-71
2021/08/04 06:32:34;;;;;;;12.55;5.38;;;;;;;;;;5109416;28;20054;-71
2021/08/04 06:35:00;;;;;;;12.07;5.55;;;;;;;;;;5109276;28;20028;-74
2021/08/04 06:37:26;;;;;;;11.65;4.95;;;;;;;;;;5110142;28;20024;-75
2021/08/04 06:39:52;;;;;;;10.90;6.03;;;;;;;;;;5110352;28;20042;-72
2021/08/04 06:42:19;;;;;;;11.52;4.80;;;;;;;;;;5110502;28;20383;-71
2021/08/04 06:44:45;;;;;;;8.93;4.32;;;;;;;;;;5099900;28;20053;-71
2021/08/04 06:47:11;;;;;;;13.85;5.38;;;;;;;;;;5098886;28;20024;-71
2021/08/04 06:49:37;;;;;;;11.18;4.47;;;;;;;;;;5107994;28;20095;-71
2021/08/04 06:52:04;;;;;;;7.63;3.65;;;;;;;;;;5108484;28;20028;-72
2021/08/04 06:54:30;;;;;;;12.10;4.18;;;;;;;;;;5108564;28;20024;-72
2021/08/04 06:56:56;;;;;;;11.80;3.45;;;;;;;;;;5108622;28;20053;-72
2021/08/04 06:59:22;;;;;;;10.07;4.28;;;;;;;;;;5108080;28;20515;-72
2021/08/04 07:01:48;;;;;;;8.63;4.03;;;;;;;;;;5107819;28;20028;-72
2021/08/04 07:04:15;;;;;;;13.07;4.03;;;;;;;;;;5107705;28;20036;-72
2021/08/04 07:06:57;;;;;;;13.82;3.33;;;;;;;;;;5107798;28;20377;-72
2021/08/04 07:09:23;;;;;;;11.98;3.95;;;;;;;;;;5108852;28;20024;-72
2021/08/04 07:11:50;;;;;;;13.15;4.35;;;;;;;;;;5097661;28;20028;-72
2021/08/04 07:14:17;;;;;;;10.43;4.10;;;;;;;;;;5095627;28;20024;-72
2021/08/04 07:16:43;;;;;;;11.80;3.95;;;;;;;;;;5095574;28;20534;-72
2021/08/04 07:19:10;;;;;;;11.73;3.83;;;;;;;;;;5093916;28;20060;-72
2021/08/04 07:21:37;;;;;;;13.23;4.32;;;;;;;;;;5094248;28;20052;-72
2021/08/04 07:24:03;;;;;;;10.75;4.47;;;;;;;;;;5094636;28;20431;-72
2021/08/04 07:26:30;;;;;;;12.45;4.82;;;;;;;;;;5095119;28;20028;-72
2021/08/04 07:28:56;;;;;;;11.02;5.00;;;;;;;;;;5095250;28;20012;-72
2021/08/04 07:31:23;;;;;;;9.23;3.97;;;;;;;;;;5095640;28;20470;-72
2021/08/04 07:33:50;;;;;;;9.80;4.22;;;;;;;;;;5095441;28;20124;-73
2021/08/04 07:36:16;;;;;;;10.95;3.80;;;;;;;;;;5094357;28;20357;-72
2021/08/04 07:38:42;;;;;;;10.90;4.18;;;;;;;;;;5094122;28;20055;-72
2021/08/04 07:41:08;;;;;;;10.10;4.63;;;;;;;;;;5095009;28;20383;-72
2021/08/04 07:43:35;;;;;;;9.98;4.85;;;;;;;;;;5095316;28;20024;-72
2021/08/04 07:46:01;;;;;;;19.75;5.15;;;;;;;;;;5094193;28;20024;-72
2021/08/04 07:48:28;;;;;;;10.80;3.58;;;;;;;;;;5094470;28;20490;-72
2021/08/04 07:50:55;;;;;;;9.07;3.45;;;;;;;;;;5094367;28;20034;-72
2021/08/04 07:53:21;;;;;;;12.27;3.85;;;;;;;;;;5092674;28;20024;-72
2021/08/04 07:55:48;;;;;;;10.73;3.83;;;;;;;;;;5093727;28;20020;-72
2021/08/04 07:58:14;;;;;;;12.30;3.33;;;;;;;;;;5089604;28;20009;-72
2021/08/04 08:00:40;;;;;;;12.63;3.90;;;;;;;;;;5075421;28;20044;-72
2021/08/04 08:03:06;;;;;;;7.63;3.50;;;;;;;;;;5092449;28;20499;-72
2021/08/04 08:05:33;;;;;;;9.98;3.40;;;;;;;;;;5093569;28;20036;-72
2021/08/04 08:08:03;;;;;;;8.00;3.42;;;;;;;;;;5093486;28;20025;-73
2021/08/04 08:10:30;;;;;;;9.48;3.30;;;;;;;;;;5094197;28;20491;-72
2021/08/04 08:12:56;;;;;;;7.80;2.95;;;;;;;;;;5094113;28;20516;-73
2021/08/04 08:15:22;;;;;;;7.22;2.72;;;;;;;;;;5093880;28;20472;-73
2021/08/04 08:17:49;;;;;;;10.90;2.80;;;;;;;;;;5094225;28;20103;-73
2021/08/04 08:20:15;;;;;;;7.13;2.90;;;;;;;;;;5094485;28;20045;-73
2021/08/04 08:22:41;;;;;;;12.27;3.08;;;;;;;;;;5092834;28;20031;-72
2021/08/04 08:25:08;;;;;;;6.32;2.42;;;;;;;;;;5094324;28;20039;-73
2021/08/04 08:27:34;;;;;;;9.07;2.75;;;;;;;;;;5094293;28;20016;-73
2021/08/04 08:30:00;;;;;;;7.72;2.03;;;;;;;;;;5093421;28;20020;-72
2021/08/04 08:32:26;;;;;;;6.85;2.30;;;;;;;;;;5094483;28;20020;-73
2021/08/04 08:34:53;;;;;;;10.85;2.75;;;;;;;;;;5094394;28;20027;-73
2021/08/04 08:37:19;;;;;;;8.02;2.33;;;;;;;;;;5093273;28;20484;-72
2021/08/04 08:39:46;;;;;;;6.30;2.13;;;;;;;;;;5094331;28;20036;-72
2021/08/04 08:42:12;;;;;;;12.25;2.90;;;;;;;;;;5094410;28;20377;-71
2021/08/04 08:44:38;;;;;;;9.57;3.30;;;;;;;;;;5094050;28;20055;-72
2021/08/04 08:47:08;;;;;;;8.48;2.47;;;;;;;;;;5093329;28;20133;-73
2021/08/04 08:49:34;;;;;;;8.95;2.42;;;;;;;;;;5094292;28;20027;-73
2021/08/04 08:52:00;;;;;;;8.18;1.70;;;;;;;;;;5094021;28;20377;-73
2021/08/04 08:54:27;;;;;;;9.60;2.80;;;;;;;;;;5094757;28;20069;-73
2021/08/04 08:56:53;;;;;;;10.68;2.92;;;;;;;;;;5094018;28;20020;-73
2021/08/04 08:59:20;;;;;;;9.57;3.75;;;;;;;;;;5094115;28;20039;-73
2021/08/04 09:01:46;;;;;;;7.38;2.45;;;;;;;;;;5094227;28;20016;-73
2021/08/04 09:04:16;;;;;;;9.57;2.40;;;;;;;;;;5094105;28;20023;-72
2021/08/04 09:06:43;;;;;;;9.95;2.15;;;;;;;;;;5094349;28;20055;-72
2021/08/04 09:09:18;;;;;;;7.75;2.85;;;;;;;;;;5094243;28;20016;-72
2021/08/04 09:11:46;;;;;;;10.05;3.55;;;;;;;;;;5093738;28;20017;-72
2021/08/04 09:14:12;;;;;;;8.68;2.35;;;;;;;;;;5094034;28;20545;-72
2021/08/04 09:16:39;;;;;;;9.45;2.35;;;;;;;;;;5092847;28;20028;-72
2021/08/04 09:19:18;;;;;;;9.45;3.30;;;;;;;;;;5093623;28;20020;-71
2021/08/04 09:21:44;;;;;;;12.63;2.50;;;;;;;;;;5094032;28;20111;-71
2021/08/04 09:24:10;;;;;;;9.00;2.72;;;;;;;;;;5066454;28;20020;-71
2021/08/04 09:26:40;;;;;;;10.38;2.80;;;;;;;;;;5092893;28;20020;-71
2021/08/04 09:29:09;;;;;;;7.05;1.83;;;;;;;;;;5093559;28;20039;-71
2021/08/04 09:31:46;;;;;;;6.85;2.10;;;;;;;;;;5093194;28;20024;-72
2021/08/04 09:34:35;;;;;;;5.70;2.22;;;;;;;;;;5092030;28;20028;-72
2021/08/04 09:37:09;;;;;;;6.68;2.08;;;;;;;;;;5092711;28;20034;-72
2021/08/04 09:39:37;;;;;;;7.20;2.63;;;;;;;;;;5092512;28;20032;-72
2021/08/04 09:42:05;;;;;;;11.38;2.58;;;;;;;;;;5093701;28;20047;-72
2021/08/04 09:44:31;;;;;;;8.88;2.33;;;;;;;;;;5093244;28;20095;-72
2021/08/04 09:47:13;;;;;;;11.13;3.13;;;;;;;;;;5092642;28;20077;-71
2021/08/04 09:49:41;;;;;;;7.47;2.13;;;;;;;;;;5092288;28;20116;-72
2021/08/04 09:52:08;;;;;;;6.63;2.55;;;;;;;;;;5092970;28;20095;-71
2021/08/04 09:54:40;;;;;;;6.10;2.97;;;;;;;;;;5091471;28;20059;-71
2021/08/04 09:57:06;;;;;;;;;;;;;;;;;;5093687;28;20032;-71
2021/08/04 09:59:32;;;;;;;5.88;1.88;;;;;;;;;;5092357;28;19920;-70
2021/08/04 10:01:59;;;;;;;9.38;2.47;;;;;;;;;;5091606;28;20021;-71
2021/08/04 10:04:26;;;;;;;5.72;2.08;;;;;;;;;;5093370;28;20016;-71
2021/08/04 10:07:03;;;;;;;7.80;3.10;;;;;;;;;;5092323;28;20521;-70
2021/08/04 10:09:29;;;;;;;5.30;2.40;;;;;;;;;;5085811;28;20028;-71
2021/08/04 10:11:56;;;;;;;3.92;1.98;;;;;;;;;;5092524;28;20376;-70
2021/08/04 10:14:23;;;;;;;6.05;2.53;;;;;;;;;;5092818;28;20028;-71
2021/08/04 10:16:50;;;;;;;9.73;2.25;;;;;;;;;;5090319;28;20412;-71
2021/08/04 10:19:17;;;;;;;11.82;2.72;;;;;;;;;;5092361;28;20039;-70
2021/08/04 10:21:46;;;;;;;6.60;2.08;;;;;;;;;;5092487;28;20021;-70
2021/08/04 10:24:13;;;;;;;6.78;2.42;;;;;;;;;;5092623;28;20024;-69
2021/08/04 10:26:40;;;;;;;4.57;2.03;;;;;;;;;;5093161;28;20024;-70
2021/08/04 10:29:07;;;;;;;6.20;1.77;;;;;;;;;;5092311;28;20029;-69
2021/08/04 10:31:34;;;;;;;7.95;2.67;;;;;;;;;;5092620;28;20114;-71
2021/08/04 10:34:01;;;;;;;5.93;2.25;;;;;;;;;;5093362;28;20346;-71
2021/08/04 10:36:35;;;;;;;7.30;2.30;;;;;;;;;;5092528;28;20055;-73
2021/08/04 10:39:11;;;;;;;7.45;2.00;;;;;;;;;;5092641;28;20032;-71
2021/08/04 10:41:38;;;;;;;7.88;2.38;;;;;;;;;;5092948;28;20024;-71
2021/08/04 10:44:07;;;;;;;10.65;3.08;;;;;;;;;;5092363;28;20512;-72
2021/08/04 10:46:37;;;;;;;8.98;2.85;;;;;;;;;;5094713;28;20032;-70
2021/08/04 10:49:03;;;;;;;6.07;2.40;;;;;;;;;;5095383;28;20110;-70
2021/08/04 10:51:29;;;;;;;7.82;2.40;;;;;;;;;;5095594;28;20164;-69
2021/08/04 10:54:02;;;;;;;6.35;2.33;;;;;;;;;;5096795;28;20024;-71
2021/08/04 10:56:34;;;;;;;10.77;2.60;;;;;;;;;;5096189;28;20023;-72
2021/08/04 10:59:10;;;;;;;8.55;2.05;;;;;;;;;;5095785;28;20514;-71
2021/08/04 11:01:36;;;;;;;11.25;3.20;;;;;;;;;;5096495;28;20031;-71
2021/08/04 11:04:03;;;;;;;9.55;2.50;;;;;;;;;;5095859;28;20020;-70
2021/08/04 11:06:29;;;;;;;7.35;2.38;;;;;;;;;;5095830;28;20034;-70
2021/08/04 11:09:14;;;;;;;7.95;2.28;;;;;;;;;;5096360;28;20077;-70
2021/08/04 11:11:55;;;;;;;8.10;2.25;;;;;;;;;;5095716;28;20022;-71
2021/08/04 11:14:41;;;;;;;7.70;2.05;;;;;;;;;;5096352;28;20028;-71
2021/08/04 11:17:08;;;;;;;8.15;2.75;;;;;;;;;;5096719;28;20016;-70
2021/08/04 11:19:54;;;;;;;10.15;2.58;;;;;;;;;;5095844;28;20059;-71
2021/08/04 11:22:22;;;;;;;6.88;2.22;;;;;;;;;;5085693;28;20068;-69
2021/08/04 11:24:55;;;;;;;8.93;3.15;;;;;;;;;;5095868;28;20024;-70
2021/08/04 11:27:24;;;;;;;7.40;2.78;;;;;;;;;;5096270;28;20032;-70
2021/08/04 11:29:50;;;;;;;7.60;2.05;;;;;;;;;;5096224;28;20433;-69
2021/08/04 11:32:20;;;;;;;10.05;3.25;;;;;;;;;;5095742;28;20161;-69
2021/08/04 11:34:46;;;;;;;6.05;2.50;;;;;;;;;;5088741;28;20419;-69
2021/08/04 11:37:13;;;;;;;5.32;2.10;;;;;;;;;;5096627;28;20017;-70
2021/08/04 11:39:57;;;;;;;5.03;1.95;;;;;;;;;;5095137;28;20388;-70
2021/08/04 11:42:24;;;;;;;8.43;2.22;;;;;;;;;;5095646;28;20024;-70
2021/08/04 11:44:51;;;;;;;6.97;2.45;;;;;;;;;;5095670;28;20020;-70
2021/08/04 11:47:17;;;;;;;6.40;2.42;;;;;;;;;;5095330;28;20389;-70
2021/08/04 11:49:46;;;;;;;8.00;2.30;;;;;;;;;;5094034;28;20506;-71
2021/08/04 11:52:13;;;;;;;7.40;2.20;;;;;;;;;;5095545;28;20387;-71
2021/08/04 11:54:43;;;;;;;6.65;2.28;;;;;;;;;;5093764;28;20062;-72
2021/08/04 11:57:24;;;;;;;8.85;2.63;;;;;;;;;;5095163;28;20031;-71
2021/08/04 11:59:52;;;;;;;4.85;1.63;;;;;;;;;;5094808;28;20055;-71
2021/08/04 12:02:20;;;;;;;7.53;2.80;;;;;;;;;;5093797;28;20028;-71
2021/08/04 12:04:53;;;;;;;7.68;2.08;;;;;;;;;;5094942;28;20505;-72
2021/08/04 12:07:22;;;;;;;8.50;2.40;;;;;;;;;;5094835;28;20027;-71
2021/08/04 12:09:49;;;;;;;8.98;2.10;;;;;;;;;;5093676;28;20425;-71
2021/08/04 12:12:17;;;;;;;7.72;2.05;;;;;;;;;;5095101;28;20087;-71
2021/08/04 12:14:43;;;;;;;8.98;2.28;;;;;;;;;;5094766;28;20046;-71
2021/08/04 12:17:09;;;;;;;12.10;2.58;;;;;;;;;;5095052;28;20024;-70
2021/08/04 12:19:40;;;;;;;8.20;2.33;;;;;;;;;;5094863;28;20040;-72
2021/08/04 12:22:08;;;;;;;7.72;2.53;;;;;;;;;;5094821;28;20016;-71
2021/08/04 12:24:41;;;;;;;7.07;2.55;;;;;;;;;;5095011;28;20024;-71
2021/08/04 12:27:07;;;;;;;5.28;2.03;;;;;;;;;;5094715;28;20016;-72
2021/08/04 12:29:33;;;;;;;7.57;2.10;;;;;;;;;;5094554;28;20031;-71
2021/08/04 12:32:03;;;;;;;8.77;2.40;;;;;;;;;;5094705;28;20164;-71
2021/08/04 12:34:29;;;;;;;5.70;2.30;;;;;;;;;;5094496;28;20043;-71
2021/08/04 12:36:56;;;;;;;10.60;2.72;;;;;;;;;;5094421;28;20020;-71
2021/08/04 12:39:24;;;;;;;9.80;2.67;;;;;;;;;;5094395;28;20036;-71
2021/08/04 12:41:50;;;;;;;7.30;2.00;;;;;;;;;;5094339;28;20020;-71
2021/08/04 12:44:19;;;;;;;6.65;2.17;;;;;;;;;;5094680;28;20085;-71
2021/08/04 12:46:45;;;;;;;9.68;2.90;;;;;;;;;;5094226;28;20028;-71
2021/08/04 12:49:21;;;;;;;8.23;2.97;;;;;;;;;;5094425;28;20024;-71
2021/08/04 12:51:56;;;;;;;9.32;2.63;;;;;;;;;;5087146;28;20111;-71
2021/08/04 12:54:27;;;;;;;13.23;4.05;;;;;;;;;;5112722;28;20522;-71
2021/08/04 12:56:54;;;;;;;6.88;2.40;;;;;;;;;;5092830;28;20388;-71
2021/08/04 12:59:22;;;;;;;8.23;2.20;;;;;;;;;;5094056;28;20048;-71
2021/08/04 13:02:08;;;;;;;7.35;2.38;;;;;;;;;;5093902;28;20077;-71
2021/08/04 13:04:34;;;;;;;8.88;2.22;;;;;;;;;;5093587;28;20031;-71
2021/08/04 13:07:00;;;;;;;7.50;2.15;;;;;;;;;;5092483;28;20483;-70
2021/08/04 13:09:28;;;;;;;9.23;2.60;;;;;;;;;;5093525;28;20521;-70
2021/08/04 13:12:13;;;;;;;5.97;2.00;;;;;;;;;;5092248;28;20472;-71
2021/08/04 13:14:57;;;;;;;6.88;2.13;;;;;;;;;;5093880;28;20106;-70
2021/08/04 13:17:24;;;;;;;7.50;2.42;;;;;;;;;;5093406;28;20099;-70
2021/08/04 13:20:01;;;;;;;7.22;2.13;;;;;;;;;;5093767;28;20040;-71
2021/08/04 13:22:28;;;;;;;8.35;2.50;;;;;;;;;;5092283;28;20020;-70
2021/08/04 13:25:05;;;;;;;5.38;1.73;;;;;;;;;;5093179;28;20494;-71
2021/08/04 13:27:36;;;;;;;6.47;2.03;;;;;;;;;;5093953;28;20534;-70
2021/08/04 13:30:18;;;;;;;7.28;2.00;;;;;;;;;;5092778;28;20027;-70
2021/08/04 13:32:45;;;;;;;6.50;2.33;;;;;;;;;;5090014;28;20103;-71
2021/08/04 13:35:11;;;;;;;9.48;2.85;;;;;;;;;;5091695;28;20166;-71
2021/08/04 13:37:37;;;;;;;6.18;2.20;;;;;;;;;;5091715;28;20511;-72
2021/08/04 13:40:04;;;;;;;10.25;2.35;;;;;;;;;;5091254;28;20036;-70
2021/08/04 13:42:34;;;;;;;11.00;2.75;;;;;;;;;;5091609;28;20024;-71
2021/08/04 13:45:00;;;;;;;11.02;2.03;;;;;;;;;;5091353;28;20072;-71
2021/08/04 13:47:26;;;;;;;8.10;2.50;;;;;;;;;;5093286;28;20031;-71
2021/08/04 13:49:56;;;;;;;11.25;2.40;;;;;;;;;;5093613;28;20024;-71
2021/08/04 13:52:22;;;;;;;8.35;2.30;;;;;;;;;;5091919;28;20519;-72
2021/08/04 13:54:48;;;;;;;8.13;2.00;;;;;;;;;;5093586;28;20028;-72
2021/08/04 13:57:14;;;;;;;7.13;2.05;;;;;;;;;;5093884;28;20376;-71
2021/08/04 13:59:41;;;;;;;8.38;2.45;;;;;;;;;;5092801;28;20055;-70
2021/08/04 14:02:07;;;;;;;7.95;2.85;;;;;;;;;;5093463;28;20058;-70
2021/08/04 14:04:33;;;;;;;9.95;2.33;;;;;;;;;;5093807;28;20023;-71
2021/08/04 14:07:00;;;;;;;8.05;2.00;;;;;;;;;;5093135;28;20465;-71
2021/08/04 14:09:27;;;;;;;6.10;1.88;;;;;;;;;;5092140;28;20028;-71
2021/08/04 14:11:53;;;;;;;5.05;1.95;;;;;;;;;;5093362;28;20045;-71
2021/08/04 14:14:20;;;;;;;7.38;2.70;;;;;;;;;;5091668;28;20016;-71
2021/08/04 14:16:48;;;;;;;4.57;1.77;;;;;;;;;;5093361;28;20100;-71
2021/08/04 14:19:14;;;;;;;13.88;3.08;;;;;;;;;;5093313;28;20031;-71
2021/08/04 14:21:42;;;;;;;6.50;2.45;;;;;;;;;;5095256;28;20073;-71
2021/08/04 14:24:08;;;;;;;8.20;2.33;;;;;;;;;;5097671;28;20436;-71
2021/08/04 14:26:34;;;;;;;7.00;2.20;;;;;;;;;;5097862;28;20024;-72
2021/08/04 14:29:01;;;;;;;13.43;2.35;;;;;;;;;;5097019;28;20024;-71
2021/08/04 14:31:27;;;;;;;7.95;1.98;;;;;;;;;;5097480;28;20066;-71
2021/08/04 14:33:53;;;;;;;10.70;2.42;;;;;;;;;;5097205;28;20036;-71
2021/08/04 14:36:20;;;;;;;8.52;2.42;;;;;;;;;;5095551;28;20020;-71
2021/08/04 14:38:46;;;;;;;9.48;2.22;;;;;;;;;;5097108;28;20093;-71
2021/08/04 14:41:12;;;;;;;13.48;2.15;;;;;;;;;;5095795;28;20396;-72
2021/08/04 14:43:38;;;;;;;6.38;2.08;;;;;;;;;;5096696;28;20070;-71
2021/08/04 14:46:04;;;;;;;8.18;2.05;;;;;;;;;;5096955;28;20495;-70
2021/08/04 14:48:31;;;;;;;7.28;2.28;;;;;;;;;;5096586;28;20016;-70
2021/08/04 14:50:57;;;;;;;6.82;1.92;;;;;;;;;;5096856;28;20066;-71
2021/08/04 14:53:24;;;;;;;7.15;2.20;;;;;;;;;;5096836;28;20388;-71
2021/08/04 14:55:50;;;;;;;6.20;3.20;;;;;;;;;;5096433;28;20048;-74
2021/08/04 14:58:18;;;;;;;4.97;1.70;;;;;;;;;;5096853;28;20028;-70
2021/08/04 15:00:44;;;;;;;6.20;2.50;;;;;;;;;;5096782;28;20048;-72
2021/08/04 15:03:10;;;;;;;7.50;2.30;;;;;;;;;;5096461;28;20055;-70